EDMO

Oberpfaffenhofen Airport

Germany
TAF EDMO 161700Z 1618/1703 VRB03KT 9999 FEW045 PROB30 TEMPO 1701/1703 3000 BCFG
Issued Valid From Valid To
Jul-16 @ 17:00 UTC
(3 hours ago)
Jul-16 @ 18:00 UTC
(2 hours ago)
Jul-17 @ 03:00 UTC
(in 7 hours)
Jul-16 @ 18:00 to Jul-17 @ 03:00
TAF EDMO 161700Z 1618/1703 VRB03KT 9999 FEW045
Wind Visibility Clouds
Variable at 3 knots 10,000+ meters
  • Few at 4,500' AGL
Temporary  (Probability 30%) Jul-17 @ 01:00 to Jul-17 @ 03:00
PROB30 TEMPO 1701/1703 3000 BCFG
Visibility Conditions
2,993 meters
  • Patches of
  • Fog
TAF EDMO 161700Z 1618/1703 VRB03KT 9999 FEW045 PROB30 TEMPO 1701/1703 3000 BCFG
Issued Jul-16 @ 17:00 UTC
(3 hours ago)
Valid From Jul-16 @ 18:00 UTC
(2 hours ago)
Valid To Jul-17 @ 03:00 UTC
(in 7 hours)
Jul-16 @ 18:00 - Jul-17 @ 03:00
Wind Visibility
Variable at 3 knots 10,000+ meters
Clouds
  • Few at 4,500' AGL
Probability 30% Temporary Jul-17 @ 01:00 - Jul-17 @ 03:00
Conditions
  • Patches of
  • Fog